Time;durP1;ratioP1;P1;durP2;ratioP2;P2;SDS_P1;SDS_P2;PMS_P1;PMS_P2;Temp;Humidity;BMP_temperature;BMP_pressure;BME280_temperature;BME280_humidity;BME280_pressure;Samples;Min_cycle;Max_cycle;Signal;HPM_P1;HPM_P2
2022/10/24 00:01:08;;;;;;;10.80;6.45;;;22.30;64.20;;;;;;5029822;28;20030;-66
2022/10/24 00:03:34;;;;;;;8.75;6.55;;;22.30;64.20;;;;;;5030061;28;20116;-66
2022/10/24 00:06:00;;;;;;;10.75;6.22;;;22.30;64.20;;;;;;5009892;28;20459;-66
2022/10/24 00:08:26;;;;;;;9.73;5.82;;;22.30;64.20;;;;;;5013088;28;20065;-66
2022/10/24 00:10:52;;;;;;;8.30;6.05;;;22.30;64.20;;;;;;5031297;28;20038;-66
2022/10/24 00:13:18;;;;;;;6.93;5.63;;;22.30;64.30;;;;;;5027375;28;20032;-65
2022/10/24 00:15:48;;;;;;;8.68;5.75;;;22.20;64.20;;;;;;5009699;28;20037;-66
2022/10/24 00:18:15;;;;;;;10.45;5.65;;;22.30;64.20;;;;;;5029404;28;20040;-65
2022/10/24 00:20:41;;;;;;;7.70;5.75;;;22.30;64.30;;;;;;5011268;28;20116;-65
2022/10/24 00:23:08;;;;;;;10.07;5.60;;;22.30;64.30;;;;;;5030814;28;20064;-65
2022/10/24 00:25:35;;;;;;;9.48;5.47;;;22.30;64.20;;;;;;5008393;28;20054;-66
2022/10/24 00:28:01;;;;;;;8.75;5.60;;;22.30;64.20;;;;;;5011495;28;20026;-66
2022/10/24 00:30:27;;;;;;;8.68;5.80;;;22.30;64.10;;;;;;5030400;28;20021;-66
2022/10/24 00:32:53;;;;;;;8.52;5.60;;;22.40;64.10;;;;;;5026927;28;20040;-66
2022/10/24 00:35:19;;;;;;;7.05;5.40;;;22.30;64.10;;;;;;5030911;28;20362;-66
2022/10/24 00:37:45;;;;;;;9.70;5.50;;;22.40;64.00;;;;;;5029666;28;20032;-66
2022/10/24 00:40:16;;;;;;;9.18;5.20;;;22.30;64.00;;;;;;5030621;28;20479;-66
2022/10/24 00:42:43;;;;;;;7.90;4.93;;;22.30;64.10;;;;;;5011388;28;20041;-66
2022/10/24 00:45:31;;;;;;;7.72;5.43;;;22.20;64.10;;;;;;5008701;28;20054;-66
2022/10/24 00:47:57;;;;;;;9.52;6.15;;;22.20;63.90;;;;;;5032892;28;20029;-66
2022/10/24 00:50:23;;;;;;;10.00;6.13;;;22.30;64.30;;;;;;5015773;28;20049;-65
2022/10/24 00:52:49;;;;;;;10.57;6.57;;;22.20;64.20;;;;;;5034395;28;20044;-66
2022/10/24 00:55:15;;;;;;;10.10;6.38;;;22.00;64.20;;;;;;5032065;28;20124;-65
2022/10/24 00:57:52;;;;;;;12.13;6.97;;;22.20;64.40;;;;;;5033955;28;20049;-66
2022/10/24 01:00:30;;;;;;;9.77;6.10;;;22.20;64.20;;;;;;5032180;28;20040;-66
2022/10/24 01:02:58;;;;;;;10.13;6.47;;;22.20;64.50;;;;;;5016017;28;20037;-66
2022/10/24 01:05:31;;;;;;;13.82;7.10;;;22.10;64.50;;;;;;5033753;28;20029;-66
2022/10/24 01:08:20;;;;;;;7.85;6.22;;;22.10;64.60;;;;;;4994905;28;20053;-65
2022/10/24 01:11:09;;;;;;;11.18;6.43;;;22.10;64.60;;;;;;5034304;28;20486;-66
2022/10/24 01:13:54;;;;;;;9.02;5.70;;;22.10;64.50;;;;;;5033738;28;20052;-66
2022/10/24 01:16:43;;;;;;;8.55;5.90;;;22.10;64.60;;;;;;5024982;28;20387;-66
2022/10/24 01:19:15;;;;;;;10.00;5.80;;;22.10;64.60;;;;;;5031227;28;20037;-66
2022/10/24 01:22:06;;;;;;;8.45;5.40;;;22.10;64.50;;;;;;5034191;28;20060;-66
2022/10/24 01:24:43;;;;;;;8.70;5.32;;;22.00;64.60;;;;;;5033343;28;20037;-66
2022/10/24 01:27:09;;;;;;;7.93;4.97;;;22.00;64.80;;;;;;5034147;28;20038;-66
2022/10/24 01:29:51;;;;;;;8.45;4.80;;;22.00;64.80;;;;;;5019307;28;20059;-65
2022/10/24 01:32:30;;;;;;;6.35;4.50;;;22.10;65.00;;;;;;5029967;28;20117;-66
2022/10/24 01:35:18;;;;;;;6.20;4.18;;;22.10;64.90;;;;;;4995097;28;20137;-66
2022/10/24 01:37:51;;;;;;;6.78;4.53;;;22.10;64.90;;;;;;5011557;28;20042;-66
2022/10/24 01:40:49;;;;;;;12.43;5.63;;;22.00;64.80;;;;;;5013503;28;20034;-65
2022/10/24 01:43:23;;;;;;;9.20;5.20;;;22.10;64.80;;;;;;5032705;28;20049;-66
2022/10/24 01:45:57;;;;;;;10.50;5.35;;;22.20;64.90;;;;;;5018914;28;20049;-66
2022/10/24 01:48:27;;;;;;;6.35;5.25;;;22.10;64.80;;;;;;5032083;28;20072;-66
2022/10/24 01:50:56;;;;;;;6.15;4.80;;;22.20;64.80;;;;;;5032443;28;20064;-66
2022/10/24 01:53:23;;;;;;;6.28;4.78;;;22.20;64.70;;;;;;5030852;28;20044;-66
2022/10/24 01:55:49;;;;;;;7.57;5.03;;;22.30;64.70;;;;;;5033540;28;20131;-65
2022/10/24 01:58:17;;;;;;;6.88;4.82;;;22.20;64.60;;;;;;5032746;28;20033;-66
2022/10/24 02:00:46;;;;;;;8.50;5.22;;;22.30;64.60;;;;;;5032333;28;20037;-64
2022/10/24 02:03:23;;;;;;;11.90;5.10;;;22.40;64.60;;;;;;5030287;28;20538;-66
2022/10/24 02:05:55;;;;;;;7.40;5.22;;;22.30;64.50;;;;;;5031434;28;20042;-66
2022/10/24 02:08:29;;;;;;;5.68;4.60;;;22.30;64.50;;;;;;5029662;28;20123;-66
2022/10/24 02:11:00;;;;;;;6.30;4.72;;;22.30;64.50;;;;;;5029896;28;20141;-66
2022/10/24 02:13:38;;;;;;;8.75;5.70;;;22.30;64.50;;;;;;5032130;28;20042;-66
2022/10/24 02:16:05;;;;;;;6.28;4.78;;;22.30;64.50;;;;;;5032208;28;20557;-66
2022/10/24 02:18:32;;;;;;;7.45;5.07;;;22.40;64.40;;;;;;5030572;28;20037;-66
2022/10/24 02:21:15;;;;;;;6.00;4.70;;;22.40;64.30;;;;;;4997914;28;20554;-65
2022/10/24 02:23:42;;;;;;;10.65;5.50;;;22.40;64.30;;;;;;5032163;28;20029;-65
2022/10/24 02:26:18;;;;;;;7.07;5.05;;;22.40;64.30;;;;;;5031803;28;20103;-65
2022/10/24 02:28:49;;;;;;;8.50;5.13;;;22.40;64.40;;;;;;5031711;28;20029;-66
2022/10/24 02:31:20;;;;;;;6.93;5.13;;;22.40;64.30;;;;;;5032358;28;20043;-66
2022/10/24 02:33:48;;;;;;;5.82;4.13;;;22.40;64.40;;;;;;5011332;28;20030;-65
2022/10/24 02:36:19;;;;;;;5.88;4.25;;;22.40;64.30;;;;;;5011815;28;20049;-66
2022/10/24 02:38:47;;;;;;;7.28;4.97;;;22.40;64.20;;;;;;5026900;28;20471;-65
2022/10/24 02:41:24;;;;;;;6.53;4.40;;;22.40;64.20;;;;;;5030065;28;20049;-65
2022/10/24 02:43:51;;;;;;;5.20;3.85;;;22.50;64.40;;;;;;4972956;28;20038;-66
2022/10/24 02:46:20;;;;;;;7.90;4.57;;;22.40;64.30;;;;;;5005289;28;20041;-66
2022/10/24 02:48:52;;;;;;;6.75;4.28;;;22.40;64.20;;;;;;5029956;28;20100;-66
2022/10/24 02:51:21;;;;;;;5.43;4.03;;;22.30;64.30;;;;;;5028949;28;20033;-66
2022/10/24 02:53:49;;;;;;;4.30;3.90;;;22.30;64.40;;;;;;5030511;28;20535;-66
2022/10/24 02:56:16;;;;;;;5.65;3.70;;;22.30;64.50;;;;;;5029880;28;20040;-65
2022/10/24 02:58:42;;;;;;;6.43;3.80;;;22.10;64.60;;;;;;5025322;28;20112;-66
2022/10/24 03:01:08;;;;;;;4.53;3.80;;;22.20;64.90;;;;;;5031288;28;20048;-65
2022/10/24 03:03:34;;;;;;;5.10;4.00;;;22.30;65.10;;;;;;5028189;28;20386;-66
2022/10/24 03:06:00;;;;;;;7.70;4.53;;;22.20;64.80;;;;;;5013092;28;20056;-66
2022/10/24 03:08:26;;;;;;;4.38;3.72;;;22.20;64.90;;;;;;5031093;28;20056;-65
2022/10/24 03:10:52;;;;;;;5.57;3.95;;;22.20;64.90;;;;;;5031472;28;20087;-65
2022/10/24 03:13:18;;;;;;;5.72;4.20;;;22.20;64.70;;;;;;5029904;28;20077;-66
2022/10/24 03:15:44;;;;;;;7.53;4.00;;;22.20;64.50;;;;;;5016101;28;20062;-65
2022/10/24 03:18:10;;;;;;;6.07;4.70;;;22.20;64.40;;;;;;5029063;28;20029;-66
2022/10/24 03:20:36;;;;;;;6.05;4.00;;;22.30;64.50;;;;;;5031170;28;20035;-66
2022/10/24 03:23:02;;;;;;;6.60;4.50;;;22.30;64.40;;;;;;5031421;28;20048;-66
2022/10/24 03:25:28;;;;;;;6.20;4.18;;;22.20;64.20;;;;;;5028947;28;20350;-65
2022/10/24 03:27:54;;;;;;;6.80;4.18;;;22.40;64.10;;;;;;5031031;28;20115;-66
2022/10/24 03:30:20;;;;;;;6.18;3.95;;;22.30;64.10;;;;;;5029929;28;20490;-66
2022/10/24 03:32:46;;;;;;;4.25;3.78;;;22.30;64.20;;;;;;5028986;28;20041;-66
2022/10/24 03:35:12;;;;;;;7.60;4.20;;;22.30;64.20;;;;;;5029369;28;20041;-65
2022/10/24 03:37:38;;;;;;;5.53;3.78;;;22.10;64.10;;;;;;5031191;28;20033;-66
2022/10/24 03:40:05;;;;;;;5.75;3.75;;;22.00;64.00;;;;;;5011595;28;20387;-66
2022/10/24 03:42:31;;;;;;;5.72;4.07;;;22.10;64.20;;;;;;5010313;28;20419;-66
2022/10/24 03:44:57;;;;;;;7.45;4.40;;;22.10;64.20;;;;;;5031652;28;20033;-66
2022/10/24 03:47:23;;;;;;;7.35;4.60;;;22.20;64.20;;;;;;5030027;28;20036;-66
2022/10/24 03:49:49;;;;;;;9.65;4.70;;;22.10;64.30;;;;;;5010656;28;20517;-65
2022/10/24 03:52:15;;;;;;;7.00;4.40;;;22.00;64.30;;;;;;5012307;28;20045;-66
2022/10/24 03:54:41;;;;;;;5.30;4.38;;;22.00;64.30;;;;;;5030929;28;20113;-66
2022/10/24 03:57:08;;;;;;;5.22;3.78;;;22.10;64.30;;;;;;5031497;28;20033;-66
2022/10/24 03:59:35;;;;;;;7.82;4.43;;;22.10;64.30;;;;;;5027684;28;20037;-66
2022/10/24 04:02:02;;;;;;;6.28;4.20;;;22.10;64.20;;;;;;5030402;28;20033;-66
2022/10/24 04:04:28;;;;;;;8.48;4.55;;;22.20;64.20;;;;;;5015879;28;20069;-66
2022/10/24 04:06:55;;;;;;;8.63;3.83;;;22.20;64.20;;;;;;5011187;28;20038;-66
2022/10/24 04:09:21;;;;;;;7.00;4.78;;;22.00;64.00;;;;;;5021158;28;20037;-66
2022/10/24 04:11:47;;;;;;;9.30;4.05;;;22.10;64.20;;;;;;4994325;28;20051;-65
2022/10/24 04:14:14;;;;;;;10.50;5.32;;;22.20;63.90;;;;;;5028232;28;20021;-65
2022/10/24 04:16:40;;;;;;;8.02;5.80;;;22.10;63.90;;;;;;5028247;28;20478;-66
2022/10/24 04:19:06;;;;;;;8.45;5.70;;;22.10;63.70;;;;;;5028239;28;20033;-66
2022/10/24 04:21:32;;;;;;;11.55;6.03;;;22.10;63.80;;;;;;5024709;28;20029;-66
2022/10/24 04:23:58;;;;;;;11.35;5.07;;;22.20;63.90;;;;;;5014259;28;20061;-66
2022/10/24 04:26:24;;;;;;;10.70;6.18;;;22.10;64.00;;;;;;5028940;28;20029;-65
2022/10/24 04:28:50;;;;;;;10.65;6.00;;;22.10;64.00;;;;;;5032338;28;20036;-65
2022/10/24 04:31:16;;;;;;;14.93;6.50;;;22.20;64.10;;;;;;5031849;28;20041;-63
2022/10/24 04:33:42;;;;;;;11.50;6.38;;;22.10;64.00;;;;;;5025388;28;20042;-66
2022/10/24 04:36:08;;;;;;;15.45;6.60;;;22.10;63.90;;;;;;5035832;28;20371;-66
2022/10/24 04:38:35;;;;;;;13.25;6.63;;;22.10;63.80;;;;;;5034798;28;20037;-66
2022/10/24 04:41:01;;;;;;;14.73;6.80;;;22.00;64.00;;;;;;5033569;28;20044;-66
2022/10/24 04:43:27;;;;;;;13.68;7.00;;;21.90;63.90;;;;;;5033795;28;20033;-66
2022/10/24 04:45:53;;;;;;;12.55;6.78;;;21.90;64.00;;;;;;5010094;28;20175;-66
2022/10/24 04:48:19;;;;;;;12.95;6.68;;;22.00;64.20;;;;;;5012882;28;20052;-65
2022/10/24 04:50:46;;;;;;;13.45;6.38;;;21.90;64.20;;;;;;5033229;28;20040;-65
2022/10/24 04:53:13;;;;;;;10.32;6.80;;;21.90;64.30;;;;;;5030619;28;20053;-65
2022/10/24 04:55:39;;;;;;;10.05;5.97;;;21.90;64.50;;;;;;5011008;28;20041;-65
2022/10/24 04:58:05;;;;;;;7.72;5.10;;;21.80;64.30;;;;;;5014514;28;20034;-66
2022/10/24 05:00:31;;;;;;;6.13;4.50;;;21.90;64.70;;;;;;5027543;28;20033;-66
2022/10/24 05:02:57;;;;;;;7.60;4.43;;;21.80;64.50;;;;;;5033086;28;20041;-66
2022/10/24 05:05:23;;;;;;;7.22;5.07;;;21.90;64.50;;;;;;5033456;28;20578;-65
2022/10/24 05:07:49;;;;;;;8.98;4.85;;;21.90;64.60;;;;;;5034692;28;20615;-66
2022/10/24 05:10:16;;;;;;;10.88;5.22;;;21.80;64.40;;;;;;5029856;28;20065;-65
2022/10/24 05:12:43;;;;;;;13.57;5.43;;;21.90;64.40;;;;;;5034113;28;20199;-66
2022/10/24 05:15:09;;;;;;;11.05;7.05;;;21.90;64.40;;;;;;5021461;28;20028;-65
2022/10/24 05:17:36;;;;;;;9.65;5.72;;;21.80;64.40;;;;;;5032842;28;20463;-65
2022/10/24 05:20:03;;;;;;;14.27;8.20;;;21.80;64.60;;;;;;5021991;28;20036;-66
2022/10/24 05:22:29;;;;;;;9.38;7.15;;;21.80;64.70;;;;;;4989361;28;20057;-66
2022/10/24 05:24:55;;;;;;;14.70;9.15;;;21.80;64.80;;;;;;4987909;28;20050;-66
2022/10/24 05:27:23;;;;;;;14.32;8.13;;;21.80;64.60;;;;;;4992449;28;20046;-66
2022/10/24 05:29:51;;;;;;;17.05;8.38;;;21.90;64.60;;;;;;4974996;28;20418;-66
2022/10/24 05:32:17;;;;;;;21.05;9.00;;;21.90;64.70;;;;;;4970562;28;20050;-66
2022/10/24 05:34:43;;;;;;;17.30;9.02;;;21.90;64.60;;;;;;4991522;28;20046;-66
2022/10/24 05:37:10;;;;;;;11.75;7.40;;;22.00;64.10;;;;;;4990768;28;20038;-65
2022/10/24 05:39:36;;;;;;;5.95;4.55;;;21.90;64.60;;;;;;4990083;28;20065;-65
2022/10/24 05:42:02;;;;;;;8.27;4.68;;;22.00;64.80;;;;;;4974748;28;20058;-65
2022/10/24 05:44:28;;;;;;;8.93;5.07;;;22.20;63.80;;;;;;4990173;28;20038;-66
2022/10/24 05:46:54;;;;;;;13.07;5.07;;;22.50;63.50;;;;;;4988987;28;20101;-66
2022/10/24 05:49:21;;;;;;;10.20;5.35;;;22.50;63.30;;;;;;4989834;28;20487;-66
2022/10/24 05:51:48;;;;;;;9.80;5.90;;;22.80;63.50;;;;;;4989406;28;20119;-66
2022/10/24 05:54:14;;;;;;;10.88;5.65;;;22.90;63.60;;;;;;5020515;28;20026;-66
2022/10/24 05:56:40;;;;;;;9.10;5.68;;;23.10;64.10;;;;;;5028496;28;20065;-66
2022/10/24 05:59:06;;;;;;;9.07;5.75;;;23.40;63.00;;;;;;5032674;28;20064;-66
2022/10/24 06:01:32;;;;;;;7.80;5.55;;;23.60;61.10;;;;;;5029851;28;20108;-65
2022/10/24 06:03:58;;;;;;;9.10;5.53;;;23.60;60.00;;;;;;5031032;28;20029;-66
2022/10/24 06:06:24;;;;;;;12.77;8.68;;;23.60;59.70;;;;;;5032014;28;20475;-64
2022/10/24 06:08:50;;;;;;;16.55;9.85;;;23.60;60.30;;;;;;5030409;28;20037;-65
2022/10/24 06:11:17;;;;;;;9.95;8.38;;;23.70;59.90;;;;;;5030334;28;20048;-65
2022/10/24 06:13:43;;;;;;;10.73;7.65;;;23.60;60.00;;;;;;5030489;28;20441;-66
2022/10/24 06:16:10;;;;;;;13.43;6.45;;;23.50;59.30;;;;;;5030415;28;20048;-66
2022/10/24 06:18:37;;;;;;;14.80;7.07;;;23.70;57.00;;;;;;5030670;28;20026;-64
2022/10/24 06:21:05;;;;;;;15.60;8.75;;;23.50;56.40;;;;;;5027951;28;20029;-65
2022/10/24 06:23:31;;;;;;;16.88;9.32;;;23.40;59.30;;;;;;5027651;28;20036;-64
2022/10/24 06:25:57;;;;;;;16.98;9.20;;;23.40;60.90;;;;;;5029777;28;20469;-66
2022/10/24 06:28:24;;;;;;;16.95;9.05;;;23.30;60.90;;;;;;5025862;28;20099;-65
2022/10/24 06:30:51;;;;;;;17.10;9.65;;;23.20;60.60;;;;;;5029812;28;20073;-64
2022/10/24 06:33:17;;;;;;;14.90;8.70;;;23.20;61.30;;;;;;4993163;28;20041;-67
2022/10/24 06:35:43;;;;;;;24.95;10.45;;;23.10;61.70;;;;;;5012941;28;20048;-68
2022/10/24 06:38:09;;;;;;;19.60;9.85;;;23.00;61.80;;;;;;5027787;28;20021;-66
2022/10/24 06:40:38;;;;;;;21.20;9.35;;;22.90;62.10;;;;;;5030439;28;20079;-65
2022/10/24 06:43:04;;;;;;;15.43;9.05;;;22.90;62.70;;;;;;5028535;28;20057;-63
2022/10/24 06:45:30;;;;;;;14.38;8.18;;;23.00;62.30;;;;;;5027398;28;20433;-66
2022/10/24 06:47:56;;;;;;;14.35;8.23;;;23.10;62.10;;;;;;5028287;28;20029;-66
2022/10/24 06:50:23;;;;;;;18.48;8.40;;;23.10;61.70;;;;;;5032170;28;20455;-67
2022/10/24 06:52:49;;;;;;;17.00;7.95;;;23.10;61.30;;;;;;5029471;28;20056;-68
2022/10/24 06:55:15;;;;;;;8.75;6.05;;;23.30;61.00;;;;;;5029178;28;20084;-67
2022/10/24 06:57:41;;;;;;;11.55;6.45;;;23.20;60.40;;;;;;5029080;28;20057;-67
2022/10/24 07:00:08;;;;;;;13.35;6.38;;;23.30;60.20;;;;;;5029640;28;20037;-67
2022/10/24 07:02:34;;;;;;;13.25;7.05;;;23.40;59.90;;;;;;5030670;28;20041;-67
2022/10/24 07:05:11;;;;;;;20.75;8.90;;;23.40;59.70;;;;;;5055802;28;20399;-68
2022/10/24 07:07:39;;;;;;;13.98;7.43;;;23.40;59.50;;;;;;5063404;28;20037;-70
2022/10/24 07:10:06;;;;;;;11.05;6.95;;;23.40;59.40;;;;;;5062246;28;20626;-68
2022/10/24 07:12:32;;;;;;;11.68;6.07;;;23.40;59.20;;;;;;5051716;28;20029;-69
2022/10/24 07:14:58;;;;;;;13.85;8.18;;;23.50;59.30;;;;;;5053323;28;20068;-70
2022/10/24 07:17:24;;;;;;;15.55;8.20;;;23.40;59.00;;;;;;5059847;28;20036;-68
2022/10/24 07:19:53;;;;;;;18.45;8.15;;;23.50;59.00;;;;;;5063743;28;20039;-67
2022/10/24 07:22:19;;;;;;;14.07;7.45;;;23.40;58.90;;;;;;5055332;28;20040;-68
2022/10/24 07:24:50;;;;;;;13.27;7.63;;;23.50;58.90;;;;;;5053452;28;20044;-68
2022/10/24 07:27:16;;;;;;;17.00;8.35;;;23.40;58.70;;;;;;5051017;28;20032;-69
2022/10/24 07:29:42;;;;;;;18.23;9.23;;;23.40;58.60;;;;;;5043119;28;20033;-69
2022/10/24 07:32:10;;;;;;;16.98;9.15;;;23.40;58.50;;;;;;5045181;28;20026;-69
2022/10/24 07:34:37;;;;;;;11.82;7.63;;;23.50;58.50;;;;;;5044856;28;20033;-70
2022/10/24 07:37:03;;;;;;;8.93;6.65;;;23.50;58.50;;;;;;5045356;28;20025;-69
2022/10/24 07:39:29;;;;;;;14.50;7.82;;;23.40;58.30;;;;;;5047844;28;20045;-69
2022/10/24 07:41:55;;;;;;;17.13;8.68;;;23.40;58.40;;;;;;5048147;28;20473;-67
2022/10/24 07:44:21;;;;;;;12.38;7.43;;;23.50;59.20;;;;;;5046714;28;20037;-68
2022/10/24 07:46:47;;;;;;;11.65;7.55;;;23.50;58.80;;;;;;5046705;28;20026;-71
2022/10/24 07:49:13;;;;;;;17.83;8.93;;;23.40;59.10;;;;;;5048875;28;20043;-73
2022/10/24 07:51:40;;;;;;;13.02;8.23;;;23.40;58.90;;;;;;5060567;28;20052;-69
2022/10/24 07:54:07;;;;;;;4.88;1.13;;;23.40;58.90;;;;;;5066472;28;20033;-69
2022/10/24 07:56:33;;;;;;;33.80;10.23;;;23.50;60.40;;;;;;5068426;28;20032;-70
2022/10/24 07:59:00;;;;;;;18.70;4.57;;;23.80;63.20;;;;;;5059942;28;20025;-68
2022/10/24 08:01:27;;;;;;;8.82;3.75;;;24.00;60.20;;;;;;5054691;28;20045;-69
2022/10/24 08:03:54;;;;;;;2.30;1.98;;;23.90;58.70;;;;;;5053982;28;20050;-69
2022/10/24 08:06:28;;;;;;;22.83;8.90;;;23.80;57.10;;;;;;5051156;28;20033;-69
2022/10/24 08:08:54;;;;;;;19.92;9.50;;;23.90;56.70;;;;;;5046233;28;20052;-68
2022/10/24 08:11:23;;;;;;;13.05;8.27;;;23.80;56.40;;;;;;5058661;28;20028;-70
2022/10/24 08:13:50;;;;;;;16.13;8.20;;;23.80;56.40;;;;;;5058972;28;20032;-69
2022/10/24 08:16:22;;;;;;;15.57;8.32;;;23.70;56.60;;;;;;5045941;28;20033;-68
2022/10/24 08:18:50;;;;;;;13.07;7.72;;;23.80;56.80;;;;;;5033279;28;20025;-72
2022/10/24 08:21:18;;;;;;;14.23;8.75;;;23.80;56.80;;;;;;5039361;28;20448;-71
2022/10/24 08:23:46;;;;;;;11.70;8.52;;;23.80;55.50;;;;;;5051506;28;20048;-71
2022/10/24 08:26:15;;;;;;;18.83;9.30;;;23.70;54.80;;;;;;5037532;28;20087;-72
2022/10/24 08:28:43;;;;;;;16.05;9.27;;;23.70;58.00;;;;;;5032484;28;20037;-71
2022/10/24 08:31:12;;;;;;;13.38;8.70;;;23.70;59.40;;;;;;5075635;28;20051;-71
2022/10/24 08:33:38;;;;;;;11.65;7.82;;;23.60;61.40;;;;;;5042967;28;20032;-71
2022/10/24 08:36:13;;;;;;;13.20;8.77;;;23.70;61.30;;;;;;5032236;28;20496;-70
2022/10/24 08:38:39;;;;;;;14.20;8.35;;;23.80;59.30;;;;;;5044425;28;20087;-70
2022/10/24 08:41:05;;;;;;;17.13;8.23;;;23.70;60.10;;;;;;5045679;28;20408;-69
2022/10/24 08:43:31;;;;;;;12.88;8.35;;;23.70;59.10;;;;;;5037261;28;20033;-69
2022/10/24 08:46:38;;;;;;;12.55;6.97;;;23.80;60.00;;;;;;5043181;28;20441;-72
2022/10/24 08:49:29;;;;;;;12.38;6.53;;;23.80;59.00;;;;;;5042942;28;20075;-70
2022/10/24 08:52:02;;;;;;;16.25;7.50;;;23.90;59.20;;;;;;5016164;28;20025;-72
2022/10/24 08:54:31;;;;;;;;;;;23.70;58.50;;;;;;5047269;28;20124;-71
2022/10/24 08:56:58;;;;;;;12.45;7.32;;;23.70;59.10;;;;;;5041378;28;19908;-71
2022/10/24 08:59:29;;;;;;;10.85;7.15;;;23.70;57.90;;;;;;5042475;28;20041;-73
2022/10/24 09:02:04;;;;;;;17.40;7.57;;;23.70;59.40;;;;;;5037668;28;20033;-72
2022/10/24 09:04:38;;;;;;;8.38;6.35;;;23.60;58.50;;;;;;5040417;28;20100;-69
2022/10/24 09:07:06;;;;;;;9.27;5.63;;;23.60;59.50;;;;;;5044425;28;20037;-68
2022/10/24 09:09:46;;;;;;;7.93;4.78;;;23.70;55.90;;;;;;5044766;28;20037;-68
2022/10/24 09:12:15;;;;;;;7.25;5.13;;;23.80;56.40;;;;;;5050046;28;20068;-69
2022/10/24 09:14:44;;;;;;;4.93;4.35;;;23.70;56.30;;;;;;5040129;28;20505;-69
2022/10/24 09:17:31;;;;;;;9.60;5.53;;;23.70;53.10;;;;;;5049488;28;20036;-67
2022/10/24 09:20:28;;;;;;;13.73;5.28;;;23.70;52.60;;;;;;5045827;28;20088;-68
2022/10/24 09:22:58;;;;;;;8.90;4.65;;;23.70;54.20;;;;;;5025213;28;20029;-70
2022/10/24 09:25:32;;;;;;;6.63;3.95;;;24.00;55.30;;;;;;5034776;28;20035;-72
2022/10/24 09:28:01;;;;;;;6.95;5.00;;;24.00;54.70;;;;;;5031637;28;20041;-75
2022/10/24 09:30:28;;;;;;;9.93;4.90;;;24.00;54.30;;;;;;5037426;28;20061;-70
2022/10/24 09:32:56;;;;;;;11.82;5.05;;;23.90;52.30;;;;;;5038086;28;20033;-73
2022/10/24 09:35:28;;;;;;;8.32;5.03;;;24.00;52.00;;;;;;5030041;28;20037;-70
2022/10/24 09:37:56;;;;;;;6.53;4.90;;;24.00;53.30;;;;;;5038394;28;20029;-73
2022/10/24 09:40:28;;;;;;;8.55;5.38;;;24.00;54.20;;;;;;5043157;28;20521;-67
2022/10/24 09:43:17;;;;;;;5.43;4.43;;;23.90;53.00;;;;;;5051870;28;20041;-72
2022/10/24 09:45:47;;;;;;;7.97;5.47;;;23.90;51.40;;;;;;5032905;28;20021;-70
2022/10/24 09:48:31;;;;;;;8.15;5.65;;;24.00;51.00;;;;;;5022329;28;20036;-70
2022/10/24 09:50:58;;;;;;;10.18;5.03;;;23.80;50.60;;;;;;5047573;28;20135;-69
2022/10/24 09:53:36;;;;;;;8.18;4.80;;;23.90;51.00;;;;;;5039579;28;20059;-70
2022/10/24 09:56:14;;;;;;;7.72;5.18;;;23.80;50.60;;;;;;5054900;28;20432;-72
2022/10/24 09:58:42;;;;;;;7.15;5.22;;;23.80;51.40;;;;;;5032874;28;20045;-68
2022/10/24 10:01:13;;;;;;;8.32;4.72;;;23.70;51.20;;;;;;5030071;28;20377;-70
2022/10/24 10:03:39;;;;;;;6.63;4.97;;;23.80;51.70;;;;;;5032305;28;20057;-69
2022/10/24 10:06:18;;;;;;;9.88;6.20;;;23.70;51.60;;;;;;5031778;28;20040;-69
2022/10/24 10:08:55;;;;;;;8.02;5.13;;;23.70;54.90;;;;;;5038853;28;20059;-73
2022/10/24 10:11:29;;;;;;;8.30;5.45;;;23.90;60.80;;;;;;5029035;28;20370;-69
2022/10/24 10:13:58;;;;;;;8.05;5.30;;;24.20;61.50;;;;;;5031848;28;20029;-69
2022/10/24 10:16:26;;;;;;;9.18;5.68;;;24.50;60.80;;;;;;5030317;28;20029;-70
2022/10/24 10:19:14;;;;;;;5.95;5.32;;;24.80;61.40;;;;;;5028489;28;20060;-71
2022/10/24 10:22:01;;;;;;;11.57;5.32;;;25.00;69.30;;;;;;5028796;28;20029;-67
2022/10/24 10:24:44;;;;;;;7.95;4.53;;;25.10;71.00;;;;;;5032487;28;20091;-69
2022/10/24 10:27:29;;;;;;;6.53;4.45;;;25.30;71.70;;;;;;5029742;28;20045;-69
2022/10/24 10:30:09;;;;;;;9.75;4.10;;;25.40;64.40;;;;;;5030729;28;20037;-70
2022/10/24 10:32:59;;;;;;;3.65;2.95;;;25.30;59.10;;;;;;5029993;28;20085;-70
2022/10/24 10:35:39;;;;;;;3.60;3.30;;;25.10;59.00;;;;;;5030491;28;20148;-69
2022/10/24 10:38:24;;;;;;;5.53;3.60;;;25.00;61.00;;;;;;5026164;28;20103;-69
2022/10/24 10:41:02;;;;;;;5.78;3.45;;;25.00;62.20;;;;;;5028929;28;20496;-70
2022/10/24 10:43:50;;;;;;;5.50;3.97;;;25.10;65.80;;;;;;5013262;28;20033;-69
2022/10/24 10:46:57;;;;;;;4.93;3.20;;;25.30;63.90;;;;;;5029176;28;20025;-69
2022/10/24 10:49:26;;;;;;;4.97;2.83;;;25.30;62.10;;;;;;5028522;28;20041;-69
2022/10/24 10:52:05;;;;;;;3.25;2.83;;;25.30;66.60;;;;;;5032806;28;20030;-70
2022/10/24 10:54:37;;;;;;;5.13;3.00;;;25.40;63.40;;;;;;5029535;28;20067;-68
2022/10/24 10:57:10;;;;;;;2.90;2.30;;;25.50;60.70;;;;;;5028403;28;20121;-69
2022/10/24 10:59:42;;;;;;;5.53;2.65;;;25.40;59.80;;;;;;5033789;28;20052;-69
2022/10/24 11:02:30;;;;;;;7.65;3.15;;;25.30;59.80;;;;;;5029222;28;20498;-68
2022/10/24 11:05:19;;;;;;;3.38;2.72;;;25.30;59.60;;;;;;5030097;28;20491;-69
2022/10/24 11:08:03;;;;;;;5.22;2.58;;;25.10;59.60;;;;;;5020368;28;20451;-68
2022/10/24 11:10:43;;;;;;;3.38;2.55;;;25.10;59.60;;;;;;5028215;28;20046;-69
2022/10/24 11:13:18;;;;;;;2.17;2.00;;;25.00;59.40;;;;;;5026751;28;20057;-69
2022/10/24 11:15:49;;;;;;;4.18;3.00;;;25.00;59.50;;;;;;5020128;28;20414;-70
2022/10/24 11:18:25;;;;;;;3.40;2.42;;;24.80;59.50;;;;;;5023181;28;20033;-68
2022/10/24 11:20:54;;;;;;;3.50;2.47;;;24.90;59.80;;;;;;5024754;28;20482;-68
2022/10/24 11:23:51;;;;;;;3.20;2.38;;;24.80;58.30;;;;;;5035279;28;20056;-69
2022/10/24 11:26:25;;;;;;;2.85;2.38;;;24.90;59.40;;;;;;5028495;28;20055;-69
2022/10/24 11:29:01;;;;;;;3.90;2.10;;;24.80;59.00;;;;;;5025283;28;20045;-68
2022/10/24 11:31:38;;;;;;;3.67;2.60;;;24.70;59.50;;;;;;5029162;28;20042;-70
2022/10/24 11:34:32;;;;;;;3.38;3.00;;;24.80;59.50;;;;;;5030319;28;20570;-69
2022/10/24 11:37:16;;;;;;;3.30;2.33;;;24.50;59.60;;;;;;5047918;28;20112;-71
2022/10/24 11:39:59;;;;;;;2.83;2.40;;;24.50;59.10;;;;;;5045705;28;20033;-70
2022/10/24 11:42:51;;;;;;;6.43;3.25;;;24.40;59.80;;;;;;5039574;28;20022;-69
2022/10/24 11:45:19;;;;;;;3.70;2.63;;;24.50;62.10;;;;;;5040502;28;20446;-69
2022/10/24 11:47:54;;;;;;;6.28;3.42;;;24.40;62.00;;;;;;5032243;28;20065;-67
2022/10/24 11:50:56;;;;;;;6.72;2.50;;;24.60;62.00;;;;;;5039753;28;20029;-67
2022/10/24 11:53:27;;;;;;;5.75;2.60;;;24.50;61.70;;;;;;5034055;28;20037;-67
2022/10/24 11:56:00;;;;;;;7.18;2.90;;;24.50;61.50;;;;;;5049337;28;20103;-67
2022/10/24 11:58:29;;;;;;;3.35;2.40;;;24.40;61.30;;;;;;5036651;28;20033;-68
2022/10/24 12:01:22;;;;;;;5.68;2.80;;;24.50;61.20;;;;;;5047549;28;20686;-68
2022/10/24 12:04:06;;;;;;;3.40;2.55;;;24.40;61.20;;;;;;5044298;28;20510;-67
2022/10/24 12:07:14;;;;;;;3.30;2.30;;;24.50;61.00;;;;;;5031585;28;20029;-67
2022/10/24 12:09:46;;;;;;;7.50;2.72;;;24.50;60.60;;;;;;5034131;28;20042;-67
2022/10/24 12:12:15;;;;;;;;;;;24.50;60.90;;;;;;5033018;28;20037;-67
2022/10/24 12:15:18;;;;;;;1.88;1.70;;;24.40;60.70;;;;;;5034775;28;19915;-69
2022/10/24 12:18:02;;;;;;;2.73;2.03;;;24.50;60.30;;;;;;4989159;28;20030;-69
2022/10/24 12:20:30;;;;;;;6.82;2.30;;;24.40;60.70;;;;;;4999177;28;20382;-67
2022/10/24 12:22:58;;;;;;;4.55;2.60;;;24.20;60.70;;;;;;4990332;28;20120;-66
2022/10/24 12:25:30;;;;;;;7.10;2.60;;;24.50;61.00;;;;;;5003463;28;20030;-66
2022/10/24 12:28:01;;;;;;;4.20;2.38;;;24.40;60.80;;;;;;4998854;28;20042;-67
2022/10/24 12:30:31;;;;;;;4.15;2.42;;;24.40;60.70;;;;;;4990650;28;20030;-66
2022/10/24 12:33:05;;;;;;;4.40;2.55;;;24.30;60.60;;;;;;4991394;28;20034;-66
2022/10/24 12:35:39;;;;;;;4.70;3.03;;;24.40;60.50;;;;;;4991705;28;20165;-66
2022/10/24 12:38:36;;;;;;;3.30;2.55;;;24.30;60.30;;;;;;4990630;28;20034;-67
2022/10/24 12:41:08;;;;;;;5.72;2.70;;;24.40;59.90;;;;;;4971802;28;20092;-66
2022/10/24 12:43:43;;;;;;;2.83;2.10;;;24.20;57.60;;;;;;4985743;28;20093;-66
2022/10/24 12:46:24;;;;;;;4.03;2.42;;;24.30;58.80;;;;;;4991273;28;20475;-66
2022/10/24 12:48:56;;;;;;;4.82;2.58;;;24.30;59.30;;;;;;4990701;28;20550;-65
2022/10/24 12:51:33;;;;;;;3.58;2.80;;;24.20;59.80;;;;;;4990679;28;20391;-66
2022/10/24 12:54:11;;;;;;;3.95;2.75;;;24.30;60.00;;;;;;4996410;28;20049;-65
2022/10/24 12:56:49;;;;;;;3.20;2.42;;;24.30;60.00;;;;;;5012381;28;20068;-64
2022/10/24 12:59:27;;;;;;;2.70;2.25;;;24.30;60.10;;;;;;5031776;28;20112;-66
2022/10/24 13:02:12;;;;;;;3.25;2.65;;;24.20;59.90;;;;;;5032123;28;20088;-66
2022/10/24 13:04:54;;;;;;;5.95;2.33;;;24.30;59.90;;;;;;5031955;28;20059;-65